Cardiff — D5EX4 — position and weather

sailwx.info

Track history (hours):
 
Tides and Currents Weather Stations Pressure Air Temp Water Temp Dewpoint Dewpoint Depression Visibility Wind Speed Wind Dir Waves Ship Positions

Cardiff

Last reported at 2017-Oct-20 05:05 UTC. Time now 2017-Oct-20 07:22 UTC.
Position N 39°34' E 025°49'.

Length 271 m; draft 11.6 m.

Type: Ship. MMSI: 636016185.

Date/timePositionNaut miles runAvg speedWind from/ knotsBaromVisibWave heightAir tempDewpointWater temp
2017-Oct-20 05:05N 39°34' E 025°49'714.1
2017-Oct-20 04:35N 39°41' E 025°49'414.1
2017-Oct-20 04:18N 39°45' E 025°49'514.2
2017-Oct-20 03:59N 39°49' E 025°49'814.9
2017-Oct-20 03:28N 39°56' E 025°54'1313.5
2017-Oct-20 02:31N 40°02' E 026°09'014.1
2017-Oct-20 02:29N 40°02' E 026°09'1411.7
2017-Oct-20 01:15N 40°12' E 026°23'2213.7
2017-Oct-19 23:40N 40°26' E 026°44'410.9
2017-Oct-19 23:17N 40°28' E 026°49'416.3
2017-Oct-19 23:01N 40°30' E 026°54'5916.2
2017-Oct-19 19:24N 40°32' E 028°12'717.3
2017-Oct-19 19:00N 40°30' E 028°20'917.3
2017-Oct-19 18:30N 40°27' E 028°30'25 0.7
2017-Oct-18 06:07N 40°51' E 028°40'216.7
2017-Oct-18 06:00N 40°53' E 028°40'5 0.6
2017-Oct-17 20:45N 40°58' E 028°41'2 0.1
2017-Oct-17 03:16N 40°56' E 028°41'0 0.7
2017-Oct-17 02:50N 40°56' E 028°41'3 7.0
2017-Oct-17 02:26N 40°53' E 028°42'1112.2
2017-Oct-17 01:33N 40°47' E 028°54'117.0
2017-Oct-17 01:29N 40°47' E 028°55'816.8
2017-Oct-17 01:00N 40°46' E 029°06'815.7
2017-Oct-17 00:30N 40°45' E 029°16'612.2
2017-Oct-16 23:59N 40°44' E 029°24'612.2
2017-Oct-16 23:29N 40°45' E 029°32'1 0.0
2017-Oct-16 08:08N 40°46' E 029°32'0 0.0
2017-Oct-15 20:55N 40°46' E 029°32'3 5.1
2017-Oct-15 20:21N 40°45' E 029°29'514.1
2017-Oct-15 20:00N 40°44' E 029°22'4 8.4
2017-Oct-15 19:30N 40°44' E 029°17'611.8
2017-Oct-15 19:00N 40°43' E 029°09'815.2
2017-Oct-15 18:31N 40°44' E 028°59'914.9
2017-Oct-15 17:56N 40°44' E 028°48'915.1
2017-Oct-15 17:21N 40°44' E 028°36'12013.7
2017-Oct-15 08:35N 40°00' E 026°09'212.0
2017-Oct-15 08:26N 39°60' E 026°07'15316.3
2017-Oct-14 23:01N 37°49' E 024°26'018.0
2017-Oct-14 23:00N 37°48' E 024°26'1817.6
2017-Oct-14 22:00N 37°38' E 024°08'918.2
2017-Oct-14 21:30N 37°36' E 023°57'918.1
2017-Oct-14 21:00N 37°39' E 023°46'917.5
2017-Oct-14 20:31N 37°45' E 023°39'816.9
2017-Oct-14 20:00N 37°54' E 023°37'4 6.7
2017-Oct-14 19:28N 37°57' E 023°36'0 0.0
2017-Oct-14 18:58N 37°57' E 023°36'0 0.0
2017-Oct-14 18:28N 37°57' E 023°36'0 0.0
2017-Oct-14 17:58N 37°57' E 023°36'0 0.0
2017-Oct-14 17:28N 37°57' E 023°36'0 0.0
2017-Oct-14 16:58N 37°57' E 023°36'0 0.0
2017-Oct-14 16:28N 37°57' E 023°36'0 0.0
2017-Oct-14 15:58N 37°57' E 023°36'0 0.0
2017-Oct-14 15:28N 37°57' E 023°36'0 0.0
2017-Oct-14 14:58N 37°57' E 023°36'0 0.0
2017-Oct-14 14:28N 37°57' E 023°36'0 0.0
2017-Oct-14 13:58N 37°57' E 023°36'0 0.0
2017-Oct-14 13:28N 37°57' E 023°36'0 0.0
2017-Oct-14 12:58N 37°57' E 023°36'0 0.0
2017-Oct-14 12:28N 37°57' E 023°36'0 0.0
2017-Oct-14 11:58N 37°57' E 023°36'0 0.0
2017-Oct-14 11:28N 37°57' E 023°36'0 0.0
2017-Oct-14 10:58N 37°57' E 023°36'0 0.0
2017-Oct-14 10:28N 37°57' E 023°36'0 0.0
2017-Oct-14 09:58N 37°57' E 023°36'0 0.0
2017-Oct-14 09:28N 37°57' E 023°36'0 0.1
2017-Oct-14 09:00N 37°57' E 023°36'2 3.5
2017-Oct-14 08:30N 37°56' E 023°37'3 5.1
2017-Oct-14 08:00N 37°53' E 023°36'0 0.8
2017-Oct-14 07:30N 37°54' E 023°36'1 1.5
2017-Oct-14 07:00N 37°53' E 023°37'1 1.4
2017-Oct-14 06:30N 37°54' E 023°38'0 0.8
2017-Oct-14 06:00N 37°54' E 023°38'1 1.6
2017-Oct-14 05:30N 37°54' E 023°37'0 0.5
2017-Oct-14 05:00N 37°54' E 023°37'0 0.7
2017-Oct-14 04:30N 37°55' E 023°37'0 0.3
2017-Oct-14 04:00N 37°55' E 023°37'1 1.3
2017-Oct-14 03:30N 37°54' E 023°37'3 5.3
2017-Oct-14 03:00N 37°52' E 023°37'714.2
2017-Oct-14 02:31N 37°45' E 023°42'917.2
2017-Oct-14 02:01N 37°38' E 023°46'917.7
2017-Oct-14 01:30N 37°29' E 023°47'3918.2
2017-Oct-13 23:23N 36°53' E 023°30'41118.1
2017-Oct-13 00:40N 35°50' E 015°05'419.0
2017-Oct-13 00:28N 35°50' E 015°00'919.1
2017-Oct-13 00:00N 35°49' E 014°49'816.9
2017-Oct-12 23:30N 35°48' E 014°39'2 3.4
2017-Oct-12 23:00N 35°47' E 014°37'4 6.9
2017-Oct-12 22:23N 35°49' E 014°33'1 0.7
2017-Oct-12 21:38N 35°49' E 014°32'0 0.0
2017-Oct-12 21:14N 35°49' E 014°32'0 0.0
2017-Oct-12 20:41N 35°49' E 014°32'0 0.0
2017-Oct-12 20:29N 35°49' E 014°32'0 0.0
2017-Oct-12 18:47N 35°49' E 014°32'0 0.0
2017-Oct-12 10:02N 35°49' E 014°32'0 0.1
2017-Oct-12 09:56N 35°49' E 014°32'0 0.0
2017-Oct-12 09:26N 35°49' E 014°32'0 0.0
2017-Oct-12 07:26N 35°49' E 014°32'0 0.0
2017-Oct-12 06:50N 35°49' E 014°32'0 0.0
2017-Oct-12 06:20N 35°49' E 014°32'0 0.0
2017-Oct-12 05:53N 35°49' E 014°32'0 0.0
2017-Oct-12 04:20N 35°49' E 014°32'0 0.0
2017-Oct-11 22:26N 35°49' E 014°32'0 0.0
2017-Oct-11 21:50N 35°49' E 014°32'0 0.0
2017-Oct-11 21:20N 35°49' E 014°32'1 2.1
2017-Oct-11 20:59N 35°49' E 014°33'2 4.4
2017-Oct-11 20:30N 35°48' E 014°35'2 4.2
2017-Oct-11 20:00N 35°47' E 014°38'1 1.8
2017-Oct-11 19:30N 35°47' E 014°39'0 0.6
2017-Oct-11 19:00N 35°47' E 014°39'1 1.3
2017-Oct-11 18:30N 35°46' E 014°39'2 3.8
2017-Oct-11 17:57N 35°44' E 014°40'1 2.5
2017-Oct-11 17:30N 35°43' E 014°40'0 0.9
2017-Oct-11 17:00N 35°44' E 014°40'  
Track history (hours):
 
Tides and Currents Weather Stations Pressure Air Temp Water Temp Dewpoint Dewpoint Depression Visibility Wind Speed Wind Dir Waves Ship Positions

Cardiff

Last reported at 2017-Oct-20 05:05 UTC. Time now 2017-Oct-20 07:22 UTC.
Position N 39°34' E 025°49'.

Length 271 m; draft 11.6 m.

Type: Ship. MMSI: 636016185.

Date/timePositionNaut miles runAvg speedWind from/ knotsBaromVisibWave heightAir tempDewpointWater temp
2017-Oct-20 05:05N 39°34' E 025°49'714.1
2017-Oct-20 04:35N 39°41' E 025°49'414.1
2017-Oct-20 04:18N 39°45' E 025°49'514.2
2017-Oct-20 03:59N 39°49' E 025°49'814.9
2017-Oct-20 03:28N 39°56' E 025°54'1313.5
2017-Oct-20 02:31N 40°02' E 026°09'014.1
2017-Oct-20 02:29N 40°02' E 026°09'1411.7
2017-Oct-20 01:15N 40°12' E 026°23'2213.7
2017-Oct-19 23:40N 40°26' E 026°44'410.9
2017-Oct-19 23:17N 40°28' E 026°49'416.3
2017-Oct-19 23:01N 40°30' E 026°54'5916.2
2017-Oct-19 19:24N 40°32' E 028°12'717.3
2017-Oct-19 19:00N 40°30' E 028°20'917.3
2017-Oct-19 18:30N 40°27' E 028°30'25 0.7
2017-Oct-18 06:07N 40°51' E 028°40'216.7
2017-Oct-18 06:00N 40°53' E 028°40'5 0.6
2017-Oct-17 20:45N 40°58' E 028°41'2 0.1
2017-Oct-17 03:16N 40°56' E 028°41'0 0.7
2017-Oct-17 02:50N 40°56' E 028°41'3 7.0
2017-Oct-17 02:26N 40°53' E 028°42'1112.2
2017-Oct-17 01:33N 40°47' E 028°54'117.0
2017-Oct-17 01:29N 40°47' E 028°55'816.8
2017-Oct-17 01:00N 40°46' E 029°06'815.7
2017-Oct-17 00:30N 40°45' E 029°16'612.2
2017-Oct-16 23:59N 40°44' E 029°24'612.2
2017-Oct-16 23:29N 40°45' E 029°32'1 0.0
2017-Oct-16 08:08N 40°46' E 029°32'0 0.0
2017-Oct-15 20:55N 40°46' E 029°32'3 5.1
2017-Oct-15 20:21N 40°45' E 029°29'514.1
2017-Oct-15 20:00N 40°44' E 029°22'4 8.4
2017-Oct-15 19:30N 40°44' E 029°17'611.8
2017-Oct-15 19:00N 40°43' E 029°09'815.2
2017-Oct-15 18:31N 40°44' E 028°59'914.9
2017-Oct-15 17:56N 40°44' E 028°48'915.1
2017-Oct-15 17:21N 40°44' E 028°36'12013.7
2017-Oct-15 08:35N 40°00' E 026°09'212.0
2017-Oct-15 08:26N 39°60' E 026°07'15316.3
2017-Oct-14 23:01N 37°49' E 024°26'018.0
2017-Oct-14 23:00N 37°48' E 024°26'1817.6
2017-Oct-14 22:00N 37°38' E 024°08'918.2
2017-Oct-14 21:30N 37°36' E 023°57'918.1
2017-Oct-14 21:00N 37°39' E 023°46'917.5
2017-Oct-14 20:31N 37°45' E 023°39'816.9
2017-Oct-14 20:00N 37°54' E 023°37'4 6.7
2017-Oct-14 19:28N 37°57' E 023°36'0 0.0
2017-Oct-14 18:58N 37°57' E 023°36'0 0.0
2017-Oct-14 18:28N 37°57' E 023°36'0 0.0
2017-Oct-14 17:58N 37°57' E 023°36'0 0.0
2017-Oct-14 17:28N 37°57' E 023°36'0 0.0
2017-Oct-14 16:58N 37°57' E 023°36'0 0.0
2017-Oct-14 16:28N 37°57' E 023°36'0 0.0
2017-Oct-14 15:58N 37°57' E 023°36'0 0.0
2017-Oct-14 15:28N 37°57' E 023°36'0 0.0
2017-Oct-14 14:58N 37°57' E 023°36'0 0.0
2017-Oct-14 14:28N 37°57' E 023°36'0 0.0
2017-Oct-14 13:58N 37°57' E 023°36'0 0.0
2017-Oct-14 13:28N 37°57' E 023°36'0 0.0
2017-Oct-14 12:58N 37°57' E 023°36'0 0.0
2017-Oct-14 12:28N 37°57' E 023°36'0 0.0
2017-Oct-14 11:58N 37°57' E 023°36'0 0.0
2017-Oct-14 11:28N 37°57' E 023°36'0 0.0
2017-Oct-14 10:58N 37°57' E 023°36'0 0.0
2017-Oct-14 10:28N 37°57' E 023°36'0 0.0
2017-Oct-14 09:58N 37°57' E 023°36'0 0.0
2017-Oct-14 09:28N 37°57' E 023°36'0 0.1
2017-Oct-14 09:00N 37°57' E 023°36'2 3.5
2017-Oct-14 08:30N 37°56' E 023°37'3 5.1
2017-Oct-14 08:00N 37°53' E 023°36'0 0.8
2017-Oct-14 07:30N 37°54' E 023°36'1 1.5
2017-Oct-14 07:00N 37°53' E 023°37'1 1.4
2017-Oct-14 06:30N 37°54' E 023°38'0 0.8
2017-Oct-14 06:00N 37°54' E 023°38'1 1.6
2017-Oct-14 05:30N 37°54' E 023°37'0 0.5
2017-Oct-14 05:00N 37°54' E 023°37'0 0.7
2017-Oct-14 04:30N 37°55' E 023°37'0 0.3
2017-Oct-14 04:00N 37°55' E 023°37'1 1.3
2017-Oct-14 03:30N 37°54' E 023°37'3 5.3
2017-Oct-14 03:00N 37°52' E 023°37'714.2
2017-Oct-14 02:31N 37°45' E 023°42'917.2
2017-Oct-14 02:01N 37°38' E 023°46'917.7
2017-Oct-14 01:30N 37°29' E 023°47'3918.2
2017-Oct-13 23:23N 36°53' E 023°30'41118.1
2017-Oct-13 00:40N 35°50' E 015°05'419.0
2017-Oct-13 00:28N 35°50' E 015°00'919.1
2017-Oct-13 00:00N 35°49' E 014°49'816.9
2017-Oct-12 23:30N 35°48' E 014°39'2 3.4
2017-Oct-12 23:00N 35°47' E 014°37'4 6.9
2017-Oct-12 22:23N 35°49' E 014°33'1 0.7
2017-Oct-12 21:38N 35°49' E 014°32'0 0.0
2017-Oct-12 21:14N 35°49' E 014°32'0 0.0
2017-Oct-12 20:41N 35°49' E 014°32'0 0.0
2017-Oct-12 20:29N 35°49' E 014°32'0 0.0
2017-Oct-12 18:47N 35°49' E 014°32'0 0.0
2017-Oct-12 10:02N 35°49' E 014°32'0 0.1
2017-Oct-12 09:56N 35°49' E 014°32'0 0.0
2017-Oct-12 09:26N 35°49' E 014°32'0 0.0
2017-Oct-12 07:26N 35°49' E 014°32'0 0.0
2017-Oct-12 06:50N 35°49' E 014°32'0 0.0
2017-Oct-12 06:20N 35°49' E 014°32'0 0.0
2017-Oct-12 05:53N 35°49' E 014°32'0 0.0
2017-Oct-12 04:20N 35°49' E 014°32'0 0.0
2017-Oct-11 22:26N 35°49' E 014°32'0 0.0
2017-Oct-11 21:50N 35°49' E 014°32'0 0.0
2017-Oct-11 21:20N 35°49' E 014°32'1 2.1
2017-Oct-11 20:59N 35°49' E 014°33'2 4.4
2017-Oct-11 20:30N 35°48' E 014°35'2 4.2
2017-Oct-11 20:00N 35°47' E 014°38'1 1.8
2017-Oct-11 19:30N 35°47' E 014°39'0 0.6
2017-Oct-11 19:00N 35°47' E 014°39'1 1.3
2017-Oct-11 18:30N 35°46' E 014°39'2 3.8
2017-Oct-11 17:57N 35°44' E 014°40'1 2.5
2017-Oct-11 17:30N 35°43' E 014°40'0 0.9
2017-Oct-11 17:00N 35°44' E 014°40'  

Dump ship's entire track history